createdAt,value
2022-11-28T00:00:51.101Z,77.30
2022-11-28T00:01:51.182Z,77.40
2022-11-28T00:02:50.952Z,77.30
2022-11-28T00:03:50.818Z,77.51
2022-11-28T00:04:50.790Z,77.81
2022-11-28T00:05:50.788Z,77.51
2022-11-28T00:06:50.807Z,77.81
2022-11-28T00:07:50.806Z,78.02
2022-11-28T00:08:50.770Z,77.81
2022-11-28T00:09:50.710Z,78.12
2022-11-28T00:10:50.737Z,77.92
2022-11-28T00:11:50.719Z,78.43
2022-11-28T00:12:50.987Z,78.12
2022-11-28T00:13:50.689Z,78.23
2022-11-28T00:14:50.677Z,78.43
2022-11-28T00:15:50.676Z,78.74
2022-11-28T00:16:50.668Z,79.05
2022-11-28T00:17:50.623Z,79.56
2022-11-28T00:18:50.910Z,79.97
2022-11-28T00:19:50.620Z,80.28
2022-11-28T00:20:50.627Z,80.58
2022-11-28T00:21:50.599Z,80.93
2022-11-28T00:22:50.599Z,81.24
2022-11-28T00:23:53.504Z,81.65
2022-11-28T00:24:50.763Z,81.76
2022-11-28T00:25:50.534Z,82.57
2022-11-28T00:26:50.551Z,82.57
2022-11-28T00:27:50.530Z,82.57
2022-11-28T00:28:50.731Z,82.68
2022-11-28T00:29:50.785Z,82.62
2022-11-28T00:30:50.476Z,82.92
2022-11-28T00:31:50.552Z,82.92
2022-11-28T00:32:50.482Z,83.33
2022-11-28T00:33:50.679Z,83.33
2022-11-28T00:34:50.442Z,83.85
2022-11-28T00:35:50.433Z,84.26
2022-11-28T00:36:50.446Z,84.36
2022-11-28T00:37:50.386Z,84.16
2022-11-28T00:38:50.722Z,84.16
2022-11-28T00:39:50.383Z,84.36
2022-11-28T00:40:50.392Z,84.26
2022-11-28T00:41:50.672Z,84.47
2022-11-28T00:42:50.344Z,84.47
2022-11-28T00:43:50.343Z,84.56
2022-11-28T00:44:50.604Z,84.36
2022-11-28T00:45:50.385Z,84.36
2022-11-28T00:46:50.302Z,84.56
2022-11-28T00:47:50.297Z,84.98
2022-11-28T00:48:50.294Z,84.88
2022-11-28T00:49:50.275Z,84.67
2022-11-28T00:50:50.520Z,84.77
2022-11-28T00:51:50.555Z,84.88
2022-11-28T00:52:50.228Z,84.71
2022-11-28T00:53:50.225Z,84.40
2022-11-28T00:54:50.229Z,84.50
2022-11-28T00:55:50.225Z,84.61
2022-11-28T00:56:50.200Z,85.02
2022-11-28T00:57:50.162Z,85.22
2022-11-28T00:58:50.161Z,85.12
2022-11-28T00:59:50.132Z,85.02
2022-11-28T01:00:50.212Z,84.67
2022-11-28T01:01:50.382Z,84.47
2022-11-28T01:02:50.137Z,84.47
2022-11-28T01:03:50.328Z,84.16
2022-11-28T01:04:50.098Z,84.16
2022-11-28T01:05:50.071Z,84.05
2022-11-28T01:06:50.042Z,84.16
2022-11-28T01:07:50.310Z,84.36
2022-11-28T01:08:50.058Z,84.47
2022-11-28T01:09:50.032Z,84.50
2022-11-28T01:10:50.028Z,84.71
2022-11-28T01:11:50.031Z,84.81
2022-11-28T01:12:49.973Z,85.12
2022-11-28T01:13:50.183Z,85.33
2022-11-28T01:14:50.210Z,85.43
2022-11-28T01:15:50.014Z,85.53
2022-11-28T01:16:50.020Z,85.63
2022-11-28T01:17:49.934Z,85.63
2022-11-28T01:18:50.124Z,85.63
2022-11-28T01:19:49.941Z,85.84
2022-11-28T01:20:49.930Z,86.05
2022-11-28T01:21:49.917Z,86.15
2022-11-28T01:22:49.865Z,86.05
2022-11-28T01:23:49.889Z,86.35
2022-11-28T01:24:50.203Z,86.46
2022-11-28T01:25:49.844Z,86.77
2022-11-28T01:26:49.842Z,86.87
2022-11-28T01:27:49.842Z,87.07
2022-11-28T01:28:49.796Z,87.18
2022-11-28T01:29:50.053Z,87.28
2022-11-28T01:30:49.772Z,87.59
2022-11-28T01:31:49.863Z,87.69
2022-11-28T01:32:49.774Z,87.79
2022-11-28T01:33:49.781Z,87.90
2022-11-28T01:34:49.726Z,88.24
2022-11-28T01:35:50.057Z,88.56
2022-11-28T01:36:49.698Z,88.66
2022-11-28T01:37:49.708Z,88.86
2022-11-28T01:38:49.677Z,88.96
2022-11-28T01:39:49.678Z,89.17
2022-11-28T01:40:49.658Z,89.38
2022-11-28T01:41:49.974Z,89.58
2022-11-28T01:42:49.973Z,89.79
2022-11-28T01:43:49.666Z,89.89
2022-11-28T01:44:49.857Z,89.79
2022-11-28T01:45:49.636Z,89.89
2022-11-28T01:46:49.664Z,90.00
2022-11-28T01:47:49.790Z,90.09
2022-11-28T01:48:49.579Z,90.00
2022-11-28T01:49:49.549Z,90.09
2022-11-28T01:50:49.550Z,90.30
2022-11-28T01:51:49.556Z,90.30
2022-11-28T01:52:49.800Z,90.09
2022-11-28T01:53:49.508Z,90.20
2022-11-28T01:54:49.809Z,90.20
2022-11-28T01:55:49.507Z,90.20
2022-11-28T01:56:49.514Z,90.20
2022-11-28T01:57:49.481Z,90.20
2022-11-28T01:58:49.481Z,90.20
2022-11-28T01:59:49.459Z,90.20
2022-11-28T02:00:49.486Z,90.09
2022-11-28T02:01:49.477Z,90.20
2022-11-28T02:02:49.411Z,90.20
2022-11-28T02:03:49.420Z,90.20
2022-11-28T02:04:49.740Z,90.45
2022-11-28T02:05:49.389Z,90.45
2022-11-28T02:06:49.398Z,90.34
2022-11-28T02:07:49.433Z,90.14
2022-11-28T02:08:49.343Z,90.14
2022-11-28T02:09:49.349Z,90.14
2022-11-28T02:10:49.616Z,90.14
2022-11-28T02:11:49.307Z,90.14
2022-11-28T02:12:49.328Z,90.24
2022-11-28T02:13:49.301Z,90.34
2022-11-28T02:14:49.309Z,90.34
2022-11-28T02:15:49.321Z,90.45
2022-11-28T02:16:49.254Z,90.45
2022-11-28T02:17:49.262Z,90.24
2022-11-28T02:18:50.687Z,90.45
2022-11-28T02:19:49.235Z,90.45
2022-11-28T02:20:49.206Z,90.34
2022-11-28T02:21:49.512Z,90.24
2022-11-28T02:22:49.212Z,90.24
2022-11-28T02:23:49.192Z,90.14
2022-11-28T02:24:49.474Z,90.14
2022-11-28T02:25:49.136Z,90.14
2022-11-28T02:26:49.144Z,90.24
2022-11-28T02:27:49.393Z,90.24
2022-11-28T02:28:49.118Z,90.24
2022-11-28T02:29:49.098Z,90.24
2022-11-28T02:30:49.107Z,90.24
2022-11-28T02:31:49.127Z,90.34
2022-11-28T02:32:49.115Z,90.24
2022-11-28T02:33:49.335Z,90.14
2022-11-28T02:34:49.331Z,90.03
2022-11-28T02:35:49.028Z,89.94
2022-11-28T02:36:49.027Z,89.83
2022-11-28T02:37:49.036Z,89.94
2022-11-28T02:38:49.317Z,90.03
2022-11-28T02:39:48.980Z,90.03
2022-11-28T02:40:49.006Z,90.03
2022-11-28T02:41:48.994Z,89.62
2022-11-28T02:42:48.960Z,89.52
2022-11-28T02:43:48.930Z,89.42
2022-11-28T02:44:49.195Z,89.22
2022-11-28T02:45:48.937Z,89.01
2022-11-28T02:46:48.963Z,89.11
2022-11-28T02:47:48.886Z,89.22
2022-11-28T02:48:48.891Z,89.01
2022-11-28T02:49:48.871Z,89.01
2022-11-28T02:50:49.190Z,89.01
2022-11-28T02:51:48.840Z,88.90
2022-11-28T02:52:48.842Z,89.01
2022-11-28T02:53:49.021Z,88.90
2022-11-28T02:54:48.822Z,88.90
2022-11-28T02:55:48.803Z,88.70
2022-11-28T02:56:48.820Z,88.59
2022-11-28T02:57:48.772Z,88.59
2022-11-28T02:58:49.016Z,88.49
2022-11-28T02:59:48.751Z,88.39
2022-11-28T03:00:48.782Z,88.59
2022-11-28T03:01:48.860Z,88.70
2022-11-28T03:02:48.723Z,88.39
2022-11-28T03:03:48.713Z,88.39
2022-11-28T03:04:49.040Z,88.18
2022-11-28T03:05:48.682Z,88.18
2022-11-28T03:06:48.709Z,88.18
2022-11-28T03:07:48.697Z,88.08
2022-11-28T03:08:48.664Z,88.18
2022-11-28T03:09:48.835Z,88.18
2022-11-28T03:10:48.634Z,88.08
2022-11-28T03:11:48.613Z,87.98
2022-11-28T03:12:48.641Z,87.87
2022-11-28T03:13:48.620Z,87.98
2022-11-28T03:14:48.876Z,88.04
2022-11-28T03:15:48.595Z,88.18
2022-11-28T03:16:48.611Z,88.14
2022-11-28T03:17:48.544Z,88.04
2022-11-28T03:18:48.545Z,87.73
2022-11-28T03:19:48.537Z,87.42
2022-11-28T03:20:48.528Z,87.42
2022-11-28T03:21:48.497Z,87.52
2022-11-28T03:22:48.515Z,87.42
2022-11-28T03:23:48.503Z,87.22
2022-11-28T03:24:48.752Z,87.32
2022-11-28T03:25:48.483Z,87.22
2022-11-28T03:26:48.490Z,87.01
2022-11-28T03:27:48.466Z,86.80
2022-11-28T03:28:48.436Z,86.80
2022-11-28T03:29:48.409Z,86.80
2022-11-28T03:30:48.755Z,86.80
2022-11-28T03:31:48.414Z,86.80
2022-11-28T03:32:48.417Z,86.60
2022-11-28T03:33:48.698Z,86.60
2022-11-28T03:34:48.392Z,86.60
2022-11-28T03:35:48.380Z,86.70
2022-11-28T03:36:48.360Z,86.60
2022-11-28T03:37:48.344Z,86.50
2022-11-28T03:38:48.318Z,86.40
2022-11-28T03:39:48.596Z,86.29
2022-11-28T03:40:48.298Z,86.19
2022-11-28T03:41:48.269Z,85.88
2022-11-28T03:42:48.275Z,85.68
2022-11-28T03:43:48.255Z,85.47
2022-11-28T03:44:48.249Z,85.47
2022-11-28T03:45:48.441Z,85.06
2022-11-28T03:46:48.281Z,84.85
2022-11-28T03:47:48.227Z,84.75
2022-11-28T03:48:48.537Z,84.64
2022-11-28T03:49:48.182Z,84.54
2022-11-28T03:50:48.182Z,84.34
2022-11-28T03:51:48.151Z,84.34
2022-11-28T03:52:48.163Z,84.23
2022-11-28T03:53:48.412Z,84.23
2022-11-28T03:54:48.149Z,84.23
2022-11-28T03:55:48.164Z,84.23
2022-11-28T03:56:48.359Z,84.23
2022-11-28T03:57:48.109Z,84.03
2022-11-28T03:58:48.090Z,83.92
2022-11-28T03:59:48.391Z,83.92
2022-11-28T04:00:48.148Z,83.92
2022-11-28T04:01:48.070Z,83.72
2022-11-28T04:02:48.110Z,83.72
2022-11-28T04:03:48.013Z,83.72
2022-11-28T04:04:48.022Z,83.72
2022-11-28T04:05:48.347Z,83.62
2022-11-28T04:06:48.018Z,83.72
2022-11-28T04:07:48.048Z,83.92
2022-11-28T04:08:47.977Z,83.72
2022-11-28T04:09:47.975Z,83.62
2022-11-28T04:10:47.973Z,83.41
2022-11-28T04:11:48.243Z,83.31
2022-11-28T04:12:47.972Z,83.41
2022-11-28T04:13:47.908Z,83.41
2022-11-28T04:14:47.936Z,83.41
2022-11-28T04:15:48.187Z,83.41
2022-11-28T04:16:53.431Z,83.20
2022-11-28T04:17:48.889Z,83.11
2022-11-28T04:18:47.885Z,83.00
2022-11-28T04:19:47.862Z,83.11
2022-11-28T04:20:47.857Z,83.20
2022-11-28T04:21:48.028Z,83.31
2022-11-28T04:22:47.807Z,83.20
2022-11-28T04:23:47.785Z,83.20
2022-11-28T04:24:47.794Z,83.11
2022-11-28T04:25:47.766Z,83.11
2022-11-28T04:26:48.047Z,83.41
2022-11-28T04:27:47.747Z,83.31
2022-11-28T04:28:47.739Z,83.41
2022-11-28T04:29:47.749Z,83.31
2022-11-28T04:30:47.745Z,83.31
2022-11-28T04:31:47.756Z,83.62
2022-11-28T04:32:47.937Z,83.62
2022-11-28T04:33:47.671Z,83.72
2022-11-28T04:34:47.678Z,83.72
2022-11-28T04:35:47.640Z,83.92
2022-11-28T04:36:47.920Z,83.72
2022-11-28T04:37:47.652Z,83.83
2022-11-28T04:38:47.657Z,83.83
2022-11-28T04:39:47.629Z,83.62
2022-11-28T04:40:47.672Z,83.62
2022-11-28T04:41:47.579Z,83.72
2022-11-28T04:42:52.614Z,83.62
2022-11-28T04:43:48.638Z,83.83
2022-11-28T04:44:47.564Z,83.62
2022-11-28T04:45:47.600Z,83.62
2022-11-28T04:46:47.832Z,83.72
2022-11-28T04:47:47.513Z,83.62
2022-11-28T04:48:47.749Z,83.41
2022-11-28T04:49:47.517Z,83.31
2022-11-28T04:50:47.498Z,83.31
2022-11-28T04:51:47.490Z,83.31
2022-11-28T04:52:47.500Z,83.41
2022-11-28T04:53:47.782Z,83.31
2022-11-28T04:54:47.445Z,83.20
2022-11-28T04:55:47.464Z,83.00
2022-11-28T04:56:47.719Z,82.96
2022-11-28T04:57:48.324Z,83.20
2022-11-28T04:58:47.414Z,83.17
2022-11-28T04:59:47.645Z,82.86
2022-11-28T05:00:47.466Z,82.76
2022-11-28T05:01:47.443Z,82.55
2022-11-28T05:02:47.345Z,82.59
2022-11-28T05:03:47.334Z,82.59
2022-11-28T05:04:47.334Z,82.45
2022-11-28T05:05:47.543Z,82.48
2022-11-28T05:06:47.317Z,82.45
2022-11-28T05:07:47.383Z,82.39
2022-11-28T05:08:47.310Z,82.24
2022-11-28T05:09:47.295Z,82.24
2022-11-28T05:10:47.257Z,82.14
2022-11-28T05:11:47.574Z,82.14
2022-11-28T05:12:47.235Z,82.24
2022-11-28T05:13:47.209Z,82.34
2022-11-28T05:14:47.548Z,82.14
2022-11-28T05:15:47.214Z,82.14
2022-11-28T05:16:47.274Z,82.14
2022-11-28T05:17:47.876Z,82.24
2022-11-28T05:18:47.200Z,82.24
2022-11-28T05:19:47.367Z,81.93
2022-11-28T05:20:47.156Z,81.73
2022-11-28T05:21:47.156Z,81.52
2022-11-28T05:22:47.112Z,81.52
2022-11-28T05:23:47.110Z,81.52
2022-11-28T05:24:47.165Z,81.42
2022-11-28T05:25:47.390Z,80.91
2022-11-28T05:26:47.362Z,80.80
2022-11-28T05:27:47.088Z,80.60
2022-11-28T05:28:47.046Z,80.49
2022-11-28T05:29:52.024Z,80.60
2022-11-28T05:30:48.059Z,80.70
2022-11-28T05:31:47.266Z,80.70
2022-11-28T05:32:46.992Z,80.39
2022-11-28T05:33:47.002Z,79.88
2022-11-28T05:34:46.998Z,79.98
2022-11-28T05:35:47.005Z,79.98
2022-11-28T05:36:47.177Z,80.29
2022-11-28T05:37:46.950Z,80.08
2022-11-28T05:38:46.924Z,80.05
2022-11-28T05:39:46.933Z,80.08
2022-11-28T05:40:46.929Z,80.19
2022-11-28T05:41:46.903Z,80.05
2022-11-28T05:42:47.153Z,80.05
2022-11-28T05:43:46.910Z,80.05
2022-11-28T05:44:46.921Z,79.94
2022-11-28T05:45:46.882Z,79.74
2022-11-28T05:46:46.834Z,79.53
2022-11-28T05:47:46.858Z,79.33
2022-11-28T05:48:47.150Z,79.43
2022-11-28T05:49:46.839Z,79.33
2022-11-28T05:50:46.812Z,79.22
2022-11-28T05:51:46.783Z,79.33
2022-11-28T05:52:46.791Z,79.33
2022-11-28T05:53:47.073Z,79.33
2022-11-28T05:54:46.763Z,79.43
2022-11-28T05:55:46.764Z,79.43
2022-11-28T05:56:46.740Z,79.43
2022-11-28T05:57:46.716Z,79.53
2022-11-28T05:58:53.947Z,79.94
2022-11-28T05:59:46.697Z,80.08
2022-11-28T06:00:46.696Z,80.29
2022-11-28T06:01:46.710Z,80.29
2022-11-28T06:02:46.674Z,80.19
2022-11-28T06:03:46.673Z,80.29
2022-11-28T06:04:46.997Z,80.29
2022-11-28T06:05:46.733Z,80.39
2022-11-28T06:06:46.608Z,80.49
2022-11-28T06:07:46.654Z,80.49
2022-11-28T06:08:46.778Z,80.70
2022-11-28T06:09:46.605Z,80.80
2022-11-28T06:10:46.550Z,81.01
2022-11-28T06:11:46.575Z,81.11
2022-11-28T06:12:46.528Z,81.21
2022-11-28T06:13:46.557Z,81.32
2022-11-28T06:14:46.847Z,81.32
2022-11-28T06:15:46.527Z,81.32
2022-11-28T06:16:46.569Z,81.42
2022-11-28T06:17:46.507Z,81.52
2022-11-28T06:18:46.486Z,81.62
2022-11-28T06:19:46.462Z,81.62
2022-11-28T06:20:46.768Z,81.62
2022-11-28T06:21:46.457Z,81.62
2022-11-28T06:22:46.411Z,81.62
2022-11-28T06:23:46.437Z,81.62
2022-11-28T06:24:46.652Z,81.52
2022-11-28T06:25:46.392Z,81.73
2022-11-28T06:26:46.388Z,81.83
2022-11-28T06:27:46.370Z,81.83
2022-11-28T06:28:46.341Z,82.14
2022-11-28T06:29:46.679Z,82.04
2022-11-28T06:30:46.343Z,82.04
2022-11-28T06:31:46.408Z,81.93
2022-11-28T06:32:46.296Z,81.93
2022-11-28T06:33:46.328Z,81.83
2022-11-28T06:34:46.298Z,81.83
2022-11-28T06:35:46.533Z,81.93
2022-11-28T06:36:46.280Z,82.04
2022-11-28T06:37:46.252Z,81.93
2022-11-28T06:38:46.470Z,81.73
2022-11-28T06:39:46.263Z,81.62
2022-11-28T06:40:46.205Z,81.62
2022-11-28T06:41:46.224Z,81.52
2022-11-28T06:42:46.202Z,81.42
2022-11-28T06:43:46.211Z,81.52
2022-11-28T06:44:46.476Z,81.62
2022-11-28T06:45:46.191Z,81.52
2022-11-28T06:46:46.162Z,81.32
2022-11-28T06:47:46.164Z,81.62
2022-11-28T06:48:46.139Z,81.32
2022-11-28T06:49:46.142Z,81.21
2022-11-28T06:50:46.406Z,81.32
2022-11-28T06:51:46.106Z,81.11
2022-11-28T06:52:46.126Z,81.11
2022-11-28T06:53:46.097Z,80.80
2022-11-28T06:54:46.037Z,80.91
2022-11-28T06:55:46.306Z,80.91
2022-11-28T06:56:46.344Z,80.80
2022-11-28T06:57:46.351Z,80.70
2022-11-28T06:58:46.026Z,80.70
2022-11-28T06:59:45.998Z,80.60
2022-11-28T07:00:46.070Z,80.60
2022-11-28T07:01:46.093Z,80.49
2022-11-28T07:02:46.038Z,80.39
2022-11-28T07:03:45.969Z,80.49
2022-11-28T07:04:45.920Z,80.49
2022-11-28T07:05:45.963Z,80.49
2022-11-28T07:06:46.306Z,80.60
2022-11-28T07:07:54.177Z,80.39
2022-11-28T07:08:46.908Z,80.29
2022-11-28T07:09:46.037Z,80.29
2022-11-28T07:10:45.859Z,80.29
2022-11-28T07:11:45.880Z,80.39
2022-11-28T07:12:45.857Z,80.29
2022-11-28T07:13:45.873Z,80.29
2022-11-28T07:14:45.838Z,80.19
2022-11-28T07:15:45.819Z,80.08
2022-11-28T07:16:45.868Z,79.98
2022-11-28T07:17:45.819Z,80.19
2022-11-28T07:18:46.047Z,79.88
2022-11-28T07:19:49.288Z,79.88
2022-11-28T07:20:46.768Z,79.67
2022-11-28T07:21:45.769Z,79.57
2022-11-28T07:22:45.720Z,79.67
2022-11-28T07:23:45.730Z,79.77
2022-11-28T07:24:45.713Z,79.77
2022-11-28T07:25:45.919Z,79.67
2022-11-28T07:26:45.673Z,79.67
2022-11-28T07:27:45.673Z,79.88
2022-11-28T07:28:45.655Z,79.88
2022-11-28T07:29:45.715Z,79.77
2022-11-28T07:30:45.625Z,79.77
2022-11-28T07:31:46.025Z,79.88
2022-11-28T07:32:45.632Z,79.88
2022-11-28T07:33:45.615Z,79.67
2022-11-28T07:34:50.016Z,79.77
2022-11-28T07:35:45.604Z,79.88
2022-11-28T07:36:45.554Z,79.67
2022-11-28T07:37:45.882Z,79.77
2022-11-28T07:38:45.538Z,79.77
2022-11-28T07:39:45.592Z,79.57
2022-11-28T07:40:45.516Z,79.57
2022-11-28T07:42:06.713Z,79.57
2022-11-28T07:42:45.505Z,79.57
2022-11-28T07:43:45.477Z,79.47
2022-11-28T07:44:45.503Z,79.47
2022-11-28T07:45:59.983Z,79.36
2022-11-28T07:46:46.569Z,79.26
2022-11-28T07:47:45.747Z,79.26
2022-11-28T07:48:45.454Z,79.26
2022-11-28T07:49:45.481Z,79.36
2022-11-28T07:50:45.435Z,79.36
2022-11-28T07:51:45.417Z,79.47
2022-11-28T07:52:45.665Z,79.47
2022-11-28T07:53:45.386Z,79.47
2022-11-28T07:54:45.369Z,79.47
2022-11-28T07:55:45.365Z,79.47
2022-11-28T07:57:11.520Z,79.57
2022-11-28T07:57:46.345Z,79.47
2022-11-28T07:58:45.320Z,79.47
2022-11-28T07:59:45.762Z,79.57
2022-11-28T08:00:45.297Z,79.53
2022-11-28T08:01:45.344Z,79.43
2022-11-28T08:02:45.296Z,79.43
2022-11-28T08:03:45.275Z,79.33
2022-11-28T08:04:50.417Z,79.16
2022-11-28T08:05:46.258Z,79.36
2022-11-28T08:06:45.250Z,79.26
2022-11-28T08:07:45.293Z,79.16
2022-11-28T08:08:45.228Z,79.12
2022-11-28T08:09:45.513Z,79.16
2022-11-28T08:10:45.431Z,79.16
2022-11-28T08:11:45.179Z,79.16
2022-11-28T08:12:45.162Z,79.12
2022-11-28T08:13:45.170Z,79.47
2022-11-28T08:14:45.341Z,79.26
2022-11-28T08:15:45.141Z,79.36
2022-11-28T08:16:45.592Z,79.36
2022-11-28T08:17:45.082Z,79.33
2022-11-28T08:18:45.137Z,79.33
2022-11-28T08:19:45.064Z,79.33
2022-11-28T08:20:45.065Z,79.22
2022-11-28T08:21:45.059Z,79.33
2022-11-28T08:22:45.044Z,79.22
2022-11-28T08:23:45.015Z,79.33
2022-11-28T08:24:45.737Z,79.33
2022-11-28T08:25:44.994Z,79.43
2022-11-28T08:26:44.996Z,79.33
2022-11-28T08:27:45.000Z,79.33
2022-11-28T08:28:44.977Z,79.53
2022-11-28T08:29:49.100Z,79.53
2022-11-28T08:30:46.332Z,79.53
2022-11-28T08:31:44.936Z,79.43
2022-11-28T08:32:44.951Z,79.43
2022-11-28T08:33:44.922Z,79.53
2022-11-28T08:34:44.906Z,79.63
2022-11-28T08:35:44.877Z,79.74
2022-11-28T08:36:45.187Z,79.63
2022-11-28T08:37:44.894Z,79.74
2022-11-28T08:38:49.911Z,79.74
2022-11-28T08:39:45.863Z,80.05
2022-11-28T08:40:44.837Z,80.15
2022-11-28T08:41:44.808Z,80.15
2022-11-28T08:42:44.827Z,80.15
2022-11-28T08:43:44.789Z,80.15
2022-11-28T08:44:44.787Z,80.25
2022-11-28T08:45:44.828Z,80.35
2022-11-28T08:46:44.810Z,80.56
2022-11-28T08:47:44.741Z,80.66
2022-11-28T08:48:50.598Z,80.46
2022-11-28T08:49:45.468Z,80.46
2022-11-28T08:50:48.016Z,80.35
2022-11-28T08:51:44.725Z,80.46
2022-11-28T08:52:44.699Z,80.46
2022-11-28T08:53:48.780Z,80.46
2022-11-28T08:54:44.962Z,80.46
2022-11-28T08:55:44.678Z,80.46
2022-11-28T08:56:44.649Z,80.42
2022-11-28T08:57:44.628Z,80.52
2022-11-28T08:58:44.654Z,80.73
2022-11-28T08:59:45.016Z,80.73
2022-11-28T09:00:44.610Z,80.63
2022-11-28T09:01:44.680Z,80.63
2022-11-28T09:02:44.581Z,80.73
2022-11-28T09:03:44.609Z,80.73
2022-11-28T09:04:44.788Z,80.63
2022-11-28T09:05:44.542Z,80.63
2022-11-28T09:06:44.559Z,80.83
2022-11-28T09:07:44.575Z,80.93
2022-11-28T09:08:44.520Z,81.04
2022-11-28T09:09:45.056Z,81.04
2022-11-28T09:10:44.484Z,81.04
2022-11-28T09:11:44.501Z,81.14
2022-11-28T09:12:44.487Z,81.24
2022-11-28T09:13:44.972Z,81.34
2022-11-28T09:14:44.451Z,81.34
2022-11-28T09:15:44.472Z,81.45
2022-11-28T09:16:44.481Z,81.45
2022-11-28T09:17:44.711Z,81.45
2022-11-28T09:18:44.397Z,81.55
2022-11-28T09:19:45.053Z,81.55
2022-11-28T09:20:44.390Z,81.65
2022-11-28T09:21:44.400Z,81.51
2022-11-28T09:22:44.362Z,81.41
2022-11-28T09:23:44.412Z,81.41
2022-11-28T09:24:44.352Z,81.62
2022-11-28T09:25:44.784Z,81.51
2022-11-28T09:26:44.286Z,81.51
2022-11-28T09:27:44.527Z,81.71
2022-11-28T09:28:44.315Z,81.51
2022-11-28T09:29:44.608Z,81.62
2022-11-28T09:30:44.300Z,81.62
2022-11-28T09:31:47.337Z,81.82
2022-11-28T09:32:44.248Z,81.82
2022-11-28T09:33:44.571Z,81.82
2022-11-28T09:34:44.426Z,81.82
2022-11-28T09:35:44.225Z,82.23
2022-11-28T09:36:44.177Z,82.03
2022-11-28T09:37:44.177Z,82.13
2022-11-28T09:38:44.150Z,82.03
2022-11-28T09:40:11.073Z,82.03
2022-11-28T09:40:45.141Z,82.13
2022-11-28T09:41:44.163Z,82.03
2022-11-28T09:42:44.166Z,82.13
2022-11-28T09:43:44.127Z,82.13
2022-11-28T09:44:44.317Z,82.23
2022-11-28T09:45:44.173Z,82.03
2022-11-28T09:46:44.049Z,82.03
2022-11-28T09:47:44.058Z,81.62
2022-11-28T09:48:44.030Z,81.71
2022-11-28T09:49:44.680Z,81.82
2022-11-28T09:50:44.002Z,81.82
2022-11-28T09:51:44.045Z,81.82
2022-11-28T09:52:44.034Z,81.82
2022-11-28T09:53:44.311Z,81.82
2022-11-28T09:54:43.970Z,81.78
2022-11-28T09:55:43.962Z,81.88
2022-11-28T09:56:43.969Z,81.78
2022-11-28T09:57:43.959Z,81.68
2022-11-28T09:58:43.919Z,81.57
2022-11-28T09:59:44.656Z,81.57
2022-11-28T10:00:44.213Z,81.57
2022-11-28T10:01:43.920Z,81.57
2022-11-28T10:02:43.883Z,81.57
2022-11-28T10:03:43.924Z,81.78
2022-11-28T10:04:43.950Z,81.78
2022-11-28T10:05:44.119Z,81.78
2022-11-28T10:06:43.829Z,81.78
2022-11-28T10:07:43.899Z,81.88
2022-11-28T10:08:43.796Z,81.78
2022-11-28T10:09:44.178Z,81.68
2022-11-28T10:10:43.807Z,81.68
2022-11-28T10:11:43.773Z,81.78
2022-11-28T10:12:43.757Z,81.78
2022-11-28T10:14:06.485Z,81.78
2022-11-28T10:14:44.724Z,81.88
2022-11-28T10:15:43.733Z,81.99
2022-11-28T10:16:44.113Z,81.88
2022-11-28T10:17:43.707Z,81.82
2022-11-28T10:18:43.686Z,81.92
2022-11-28T10:19:54.309Z,82.13
2022-11-28T10:20:44.657Z,82.09
2022-11-28T10:21:43.907Z,82.13
2022-11-28T10:22:43.662Z,82.13
2022-11-28T10:23:43.645Z,82.13
2022-11-28T10:24:43.615Z,82.33
2022-11-28T10:25:43.618Z,82.54
2022-11-28T10:26:43.986Z,82.64
2022-11-28T10:27:43.588Z,82.64
2022-11-28T10:28:43.570Z,82.43
2022-11-28T10:29:43.713Z,82.75
2022-11-28T10:30:43.793Z,82.95
2022-11-28T10:31:43.540Z,82.95
2022-11-28T10:32:43.520Z,83.05
2022-11-28T10:33:43.569Z,83.26
2022-11-28T10:34:43.502Z,83.15
2022-11-28T10:35:43.527Z,83.15
2022-11-28T10:36:43.847Z,83.26
2022-11-28T10:37:43.497Z,83.15
2022-11-28T10:38:43.474Z,83.15
2022-11-28T10:39:43.789Z,83.15
2022-11-28T10:40:43.434Z,83.36
2022-11-28T10:41:43.447Z,83.26
2022-11-28T10:42:43.986Z,83.26
2022-11-28T10:43:43.428Z,83.46
2022-11-28T10:44:43.371Z,83.26
2022-11-28T10:45:43.416Z,83.26
2022-11-28T10:46:43.429Z,83.36
2022-11-28T10:47:43.353Z,83.26
2022-11-28T10:48:43.351Z,83.26
2022-11-28T10:49:43.639Z,83.26
2022-11-28T10:50:43.314Z,83.15
2022-11-28T10:51:43.339Z,83.26
2022-11-28T10:52:43.283Z,83.36
2022-11-28T10:53:43.293Z,83.36
2022-11-28T10:54:43.476Z,83.36
2022-11-28T10:55:43.289Z,83.36
2022-11-28T10:56:43.293Z,83.46
2022-11-28T10:57:43.272Z,83.56
2022-11-28T10:58:43.213Z,83.46
2022-11-28T10:59:43.771Z,83.46
2022-11-28T11:00:43.230Z,83.46
2022-11-28T11:01:47.383Z,83.56
2022-11-28T11:02:44.192Z,83.56
2022-11-28T11:03:43.166Z,83.67
2022-11-28T11:04:43.233Z,83.67
2022-11-28T11:05:43.183Z,83.77
2022-11-28T11:07:07.176Z,83.77
2022-11-28T11:07:44.172Z,83.77
2022-11-28T11:08:43.122Z,83.87
2022-11-28T11:09:43.290Z,83.98
2022-11-28T11:10:43.089Z,83.98
2022-11-28T11:11:43.102Z,83.98
2022-11-28T11:12:43.103Z,83.98
2022-11-28T11:13:43.073Z,84.18
2022-11-28T11:14:43.059Z,84.39
2022-11-28T11:15:43.060Z,84.39
2022-11-28T11:16:43.033Z,84.49
2022-11-28T11:17:43.034Z,84.59
2022-11-28T11:18:43.218Z,84.69
2022-11-28T11:19:43.184Z,84.80
2022-11-28T11:20:42.960Z,84.90
2022-11-28T11:21:42.984Z,84.90
2022-11-28T11:22:43.643Z,84.90
2022-11-28T11:23:42.965Z,84.90
2022-11-28T11:24:43.227Z,84.80
2022-11-28T11:25:42.919Z,84.90
2022-11-28T11:26:42.915Z,84.90
2022-11-28T11:27:42.918Z,84.86
2022-11-28T11:28:42.869Z,85.06
2022-11-28T11:29:44.954Z,85.06
2022-11-28T11:30:43.281Z,85.17
2022-11-28T11:31:42.847Z,85.11
2022-11-28T11:32:45.323Z,85.11
2022-11-28T11:33:42.861Z,85.06
2022-11-28T11:34:42.833Z,85.21
2022-11-28T11:35:42.832Z,85.31
2022-11-28T11:36:42.844Z,85.41
2022-11-28T11:37:42.808Z,85.41
2022-11-28T11:38:42.772Z,85.41
2022-11-28T11:39:43.125Z,85.52
2022-11-28T11:40:42.733Z,85.47
2022-11-28T11:41:42.734Z,85.47
2022-11-28T11:42:42.704Z,85.47
2022-11-28T11:43:42.912Z,85.58
2022-11-28T11:44:42.683Z,85.58
2022-11-28T11:45:42.716Z,85.68
2022-11-28T11:46:42.694Z,85.68
2022-11-28T11:47:42.664Z,85.78
2022-11-28T11:48:42.667Z,86.09
2022-11-28T11:49:43.261Z,86.19
2022-11-28T11:50:42.613Z,86.09
2022-11-28T11:51:42.638Z,85.99
2022-11-28T11:52:42.621Z,86.09
2022-11-28T11:53:42.915Z,86.19
2022-11-28T11:54:42.600Z,86.19
2022-11-28T11:55:42.573Z,86.19
2022-11-28T11:56:42.582Z,86.30
2022-11-28T11:57:42.864Z,86.40
2022-11-28T12:00:04.219Z,86.36
2022-11-28T12:00:53.719Z,86.25
2022-11-28T12:01:53.527Z,86.36
2022-11-28T12:02:53.604Z,86.25
2022-11-28T12:03:53.591Z,86.15
2022-11-28T12:04:55.544Z,86.25
2022-11-28T12:06:13.275Z,86.25
2022-11-28T12:06:54.750Z,86.25
2022-11-28T12:07:53.520Z,86.25
2022-11-28T12:08:53.430Z,86.25
2022-11-28T12:09:54.701Z,86.15
2022-11-28T12:10:53.416Z,86.15
2022-11-28T12:11:53.417Z,86.05
2022-11-28T12:12:53.387Z,86.15
2022-11-28T12:13:53.362Z,86.15
2022-11-28T12:15:07.850Z,86.25
2022-11-28T12:15:53.471Z,86.25
2022-11-28T12:16:53.326Z,86.15
2022-11-28T12:17:58.302Z,86.25
2022-11-28T12:18:54.292Z,86.25
2022-11-28T12:19:53.602Z,86.25
2022-11-28T12:20:53.308Z,86.25
2022-11-28T12:21:53.300Z,86.46
2022-11-28T12:22:53.280Z,86.46
2022-11-28T12:23:53.248Z,86.46
2022-11-28T12:24:53.437Z,86.36
2022-11-28T12:25:53.251Z,86.36
2022-11-28T12:26:53.229Z,86.36
2022-11-28T12:27:53.229Z,86.25
2022-11-28T12:28:53.174Z,86.25
2022-11-28T12:29:53.174Z,86.25
2022-11-28T12:30:53.445Z,86.46
2022-11-28T12:31:53.200Z,86.25
2022-11-28T12:32:53.125Z,86.25
2022-11-28T12:33:53.160Z,86.25
2022-11-28T12:34:53.131Z,86.25
2022-11-28T12:35:53.107Z,86.15
2022-11-28T12:36:53.317Z,86.25
2022-11-28T12:38:10.325Z,86.36
2022-11-28T12:38:54.084Z,86.40
2022-11-28T12:39:53.083Z,86.50
2022-11-28T12:40:53.036Z,86.50
2022-11-28T12:41:53.368Z,86.46
2022-11-28T12:42:53.019Z,86.46
2022-11-28T12:43:53.276Z,86.46
2022-11-28T12:44:52.986Z,86.50
2022-11-28T12:45:53.327Z,86.60
2022-11-28T12:46:52.966Z,86.81
2022-11-28T12:47:52.968Z,86.66
2022-11-28T12:48:53.625Z,86.57
2022-11-28T12:49:52.969Z,86.50
2022-11-28T12:50:52.909Z,86.60
2022-11-28T12:51:53.227Z,86.71
2022-11-28T12:52:52.898Z,86.91
2022-11-28T12:53:52.902Z,86.91